Terminal Aerodrome Forecast
Issued by NWS Birmingham, AL

Home | Current Version | Previous Version | Text Only | Print | Product List | Glossary On
Versions: 1 2 3 4 5 6 7 8 9 10 11 12 13 14 15 16 17 18 19 20
000
FTUS44 KBMX 242300
TAFBHM
TAF
KBHM 242320Z 2500/2524 27009KT P6SM SCT015 OVC035
     FM250700 29004KT P6SM SCT020 OVC035
     FM251600 25008KT P6SM SCT040=

USA.gov is the U.S. government's official web portal to all federal, state and local government web resources and services.